Geronimo, Texas
Current Conditions -  °F | °C
As of 1:51 AM on Sunday 26 Oct 2014 (Local Time) from KBAZ Reporting Station
Clear Clear  
Wind Chill: 64°   Ceiling: Unl
Heat Index: 64°   Visibility: 10mi
Dew Point: 64°   Wind: 5mph
Humidity: 100%   Direction: 240°WSW
Pressure: 30.07"   Gusts: NA
Location:  29.66°N, 97.97°W
Report Text: KBAZ 260651Z AUTO 24004KT 10SM CLR 18/18 A3007 RMK AO2 SLP175 T01780178
Loading
Personal Weather Stations






























Interactive Weather Map
Tropical Storm Tracking
New forecast layout! Learn more

10-Day Weather Forecast

Advertisements
Track Severe Weather on mobile